createdAt,value
2023-01-12T00:02:12.253Z,100179.29
2023-01-12T00:04:43.462Z,100179.94
2023-01-12T00:07:16.032Z,100179.77
2023-01-12T00:09:46.909Z,100174.51
2023-01-12T00:12:17.544Z,100175.06
2023-01-12T00:14:48.356Z,100177.93
2023-01-12T00:17:19.662Z,100178.45
2023-01-12T00:19:51.466Z,100178.81
2023-01-12T00:22:22.153Z,100183.73
2023-01-12T00:24:53.138Z,100185.77
2023-01-12T00:27:24.097Z,100189.70
2023-01-12T00:29:54.774Z,100190.89
2023-01-12T00:32:25.437Z,100185.15
2023-01-12T00:34:56.223Z,100188.58
2023-01-12T00:37:27.908Z,100184.36
2023-01-12T00:40:02.423Z,100187.58
2023-01-12T00:42:49.959Z,100186.73
2023-01-12T00:45:24.617Z,100192.02
2023-01-12T00:47:55.856Z,100195.42
2023-01-12T00:50:26.556Z,100198.84
2023-01-12T00:52:57.222Z,100200.20
2023-01-12T00:55:27.960Z,100196.83
2023-01-12T00:57:59.475Z,100199.89
2023-01-12T01:00:30.161Z,100195.52
2023-01-12T01:03:01.069Z,100200.30
2023-01-12T01:05:32.635Z,100195.75
2023-01-12T01:08:05.114Z,100189.35
2023-01-12T01:10:35.802Z,100193.28
2023-01-12T01:13:06.541Z,100192.95
2023-01-12T01:15:37.628Z,100187.88
2023-01-12T01:18:08.476Z,100190.08
2023-01-12T01:20:39.146Z,100190.06
2023-01-12T01:23:09.799Z,100188.88
2023-01-12T01:25:40.477Z,100192.63
2023-01-12T01:28:11.163Z,100192.31
2023-01-12T01:30:41.844Z,100191.50
2023-01-12T01:33:12.777Z,100188.83
2023-01-12T01:35:43.633Z,100183.61
2023-01-12T01:38:14.299Z,100183.64
2023-01-12T01:40:45.749Z,100181.11
2023-01-12T01:43:18.460Z,100182.98
2023-01-12T01:46:01.629Z,100183.83
2023-01-12T01:48:38.014Z,100186.36
2023-01-12T01:51:13.254Z,100186.38
2023-01-12T01:53:45.605Z,100185.22
2023-01-12T01:56:21.470Z,100187.27
2023-01-12T01:58:56.587Z,100183.90
2023-01-12T02:01:27.999Z,100188.67
2023-01-12T02:04:00.926Z,100182.27
2023-01-12T02:06:32.041Z,100185.67
2023-01-12T02:09:07.494Z,100191.80
2023-01-12T02:11:56.094Z,100193.36
2023-01-12T02:14:44.581Z,100194.55
2023-01-12T02:17:28.665Z,100190.16
2023-01-12T02:20:27.951Z,100188.80
2023-01-12T02:23:32.077Z,100192.37
2023-01-12T02:26:24.118Z,100194.59
2023-01-12T02:29:40.468Z,100200.04
2023-01-12T02:32:18.187Z,100200.73
2023-01-12T02:35:02.158Z,100200.43
2023-01-12T02:37:43.119Z,100198.25
2023-01-12T02:40:22.815Z,100199.09
2023-01-12T02:43:00.348Z,100199.61
2023-01-12T02:45:42.904Z,100198.95
2023-01-12T02:48:20.051Z,100201.67
2023-01-12T02:50:58.696Z,100201.36
2023-01-12T02:53:35.651Z,100207.67
2023-01-12T02:56:08.762Z,100208.56
2023-01-12T02:58:43.866Z,100215.71
2023-01-12T03:01:15.451Z,100216.58
2023-01-12T03:03:47.157Z,100221.52
2023-01-12T03:06:19.872Z,100218.48
2023-01-12T03:08:52.862Z,100219.36
2023-01-12T03:11:25.317Z,100221.77
2023-01-12T03:14:00.785Z,100223.64
2023-01-12T03:16:36.569Z,100225.84
2023-01-12T03:19:10.448Z,100232.66
2023-01-12T03:21:45.152Z,100237.94
2023-01-12T03:24:19.587Z,100239.82
2023-01-12T03:27:03.138Z,100240.52
2023-01-12T03:29:38.893Z,100240.18
2023-01-12T03:32:10.035Z,100235.80
2023-01-12T03:34:41.384Z,100238.86
2023-01-12T03:37:18.495Z,100242.96
2023-01-12T03:39:59.318Z,100239.41
2023-01-12T03:42:35.076Z,100235.70
2023-01-12T03:45:16.947Z,100233.35
2023-01-12T03:47:50.186Z,100234.73
2023-01-12T03:50:27.335Z,100237.45
2023-01-12T03:53:00.347Z,100239.51
2023-01-12T03:55:33.960Z,100239.69
2023-01-12T03:58:05.686Z,100238.68
2023-01-12T04:00:37.216Z,100235.31
2023-01-12T04:03:12.464Z,100234.84
2023-01-12T04:05:44.899Z,100230.64
2023-01-12T04:08:17.259Z,100232.02
2023-01-12T04:10:48.102Z,100228.65
2023-01-12T04:13:18.860Z,100232.56
2023-01-12T04:15:50.934Z,100239.70
2023-01-12T04:18:21.611Z,100246.52
2023-01-12T04:20:52.334Z,100247.05
2023-01-12T04:23:23.391Z,100249.45
2023-01-12T04:25:54.002Z,100253.02
2023-01-12T04:28:24.734Z,100256.09
2023-01-12T04:30:55.707Z,100256.44
2023-01-12T04:33:26.341Z,100253.23
2023-01-12T04:35:57.130Z,100262.24
2023-01-12T04:38:27.880Z,100263.12
2023-01-12T04:40:58.603Z,100262.45
2023-01-12T04:43:29.530Z,100267.05
2023-01-12T04:46:00.351Z,100264.52
2023-01-12T04:48:31.035Z,100265.71
2023-01-12T04:51:03.301Z,100262.16
2023-01-12T04:53:34.117Z,100266.42
2023-01-12T04:56:08.273Z,100263.39
2023-01-12T04:58:39.078Z,100254.89
2023-01-12T05:01:15.402Z,100260.67
2023-01-12T05:03:47.081Z,100258.48
2023-01-12T05:06:17.752Z,100262.73
2023-01-12T05:09:20.806Z,100260.36
2023-01-12T05:11:51.506Z,100266.14
2023-01-12T05:14:22.195Z,100264.45
2023-01-12T05:16:52.873Z,100261.23
2023-01-12T05:19:23.564Z,100259.55
2023-01-12T05:21:54.293Z,100257.70
2023-01-12T05:24:25.160Z,100260.59
2023-01-12T05:26:56.453Z,100264.16
2023-01-12T05:29:27.153Z,100261.13
2023-01-12T05:31:57.821Z,100258.06
2023-01-12T05:34:28.506Z,100256.04
2023-01-12T05:36:59.149Z,100261.48
2023-01-12T05:39:29.842Z,100265.57
2023-01-12T05:42:18.275Z,100269.14
2023-01-12T05:44:49.095Z,100267.11
2023-01-12T05:47:19.821Z,100269.67
2023-01-12T05:49:50.581Z,100270.20
2023-01-12T05:52:21.318Z,100274.62
2023-01-12T05:54:52.028Z,100277.34
2023-01-12T05:57:22.754Z,100277.17
2023-01-12T05:59:53.589Z,100279.58
2023-01-12T06:02:24.399Z,100285.34
2023-01-12T06:04:55.159Z,100286.73
2023-01-12T06:07:25.981Z,100286.04
2023-01-12T06:09:56.691Z,100285.37
2023-01-12T06:12:44.976Z,100286.73
2023-01-12T06:15:15.748Z,100283.67
2023-01-12T06:17:46.471Z,100278.23
2023-01-12T06:20:17.623Z,100279.08
2023-01-12T06:22:48.361Z,100287.92
2023-01-12T06:25:19.244Z,100289.96
2023-01-12T06:27:50.006Z,100293.20
2023-01-12T06:30:21.512Z,100297.11
2023-01-12T06:32:52.414Z,100301.03
2023-01-12T06:35:23.262Z,100297.46
2023-01-12T06:37:58.645Z,100299.50
2023-01-12T06:40:29.346Z,100301.88
2023-01-12T06:43:00.099Z,100302.91
2023-01-12T06:45:30.854Z,100305.80
2023-01-12T06:48:01.630Z,100307.67
2023-01-12T06:50:33.468Z,100301.89
2023-01-12T06:53:06.993Z,100300.89
2023-01-12T06:55:37.641Z,100298.52
2023-01-12T06:58:08.341Z,100300.21
2023-01-12T07:00:39.063Z,100303.45
2023-01-12T07:03:14.058Z,100305.15
2023-01-12T07:05:44.815Z,100308.05
2023-01-12T07:08:19.197Z,100317.23
2023-01-12T07:10:49.869Z,100323.87
2023-01-12T07:13:20.643Z,100328.81
2023-01-12T07:15:52.662Z,100331.36
2023-01-12T07:18:23.404Z,100334.45
2023-01-12T07:20:54.104Z,100331.40
2023-01-12T07:23:24.848Z,100339.22
2023-01-12T07:25:57.616Z,100341.61
2023-01-12T07:28:28.413Z,100343.15
2023-01-12T07:31:03.388Z,100345.55
2023-01-12T07:33:36.790Z,100347.08
2023-01-12T07:36:08.379Z,100342.84
2023-01-12T07:38:39.066Z,100343.86
2023-01-12T07:41:30.587Z,100348.80
2023-01-12T07:44:03.665Z,100348.48
2023-01-12T07:46:35.214Z,100347.96
2023-01-12T07:49:07.065Z,100352.90
2023-01-12T07:51:37.847Z,100349.68
2023-01-12T07:54:08.979Z,100349.68
2023-01-12T07:56:40.166Z,100351.92
2023-01-12T07:59:13.945Z,100351.41
2023-01-12T08:01:44.904Z,100355.31
2023-01-12T08:04:16.461Z,100364.66
2023-01-12T08:06:47.166Z,100367.56
2023-01-12T08:09:18.097Z,100372.49
2023-01-12T08:11:48.879Z,100370.45
2023-01-12T08:14:28.985Z,100370.27
2023-01-12T08:17:02.299Z,100377.27
2023-01-12T08:19:38.830Z,100380.15
2023-01-12T08:22:16.654Z,100379.98
2023-01-12T08:24:51.171Z,100380.67
2023-01-12T08:27:26.238Z,100375.40
2023-01-12T08:30:00.087Z,100371.98
2023-01-12T08:32:32.198Z,100378.80
2023-01-12T08:35:04.749Z,100378.96
2023-01-12T08:37:36.935Z,100378.13
2023-01-12T08:40:10.254Z,100376.77
2023-01-12T08:42:40.960Z,100380.67
2023-01-12T08:45:13.615Z,100378.14
2023-01-12T08:47:45.416Z,100382.25
2023-01-12T08:50:16.368Z,100381.47
2023-01-12T08:52:47.420Z,100382.16
2023-01-12T08:55:18.219Z,100388.24
2023-01-12T08:57:49.152Z,100383.95
2023-01-12T09:00:22.547Z,100384.21
2023-01-12T09:02:53.338Z,100387.81
2023-01-12T09:05:24.171Z,100385.86
2023-01-12T09:07:54.859Z,100387.33
2023-01-12T09:10:25.641Z,100391.27
2023-01-12T09:12:57.050Z,100378.69
2023-01-12T09:15:28.305Z,100374.82
2023-01-12T09:17:59.266Z,100374.50
2023-01-12T09:20:29.973Z,100365.39
2023-01-12T09:23:03.921Z,100361.34
2023-01-12T09:25:35.637Z,100360.20
2023-01-12T09:28:06.485Z,100360.18
2023-01-12T09:30:37.264Z,100361.19
2023-01-12T09:33:08.006Z,100361.33
2023-01-12T09:35:39.161Z,100359.27
2023-01-12T09:38:09.895Z,100352.05
2023-01-12T09:40:45.813Z,100349.17
2023-01-12T09:43:35.238Z,100343.98
2023-01-12T09:46:23.891Z,100342.70
2023-01-12T09:48:54.704Z,100342.80
2023-01-12T09:51:32.421Z,100337.64
2023-01-12T09:54:04.746Z,100331.41
2023-01-12T09:56:42.194Z,100330.44
2023-01-12T09:59:32.866Z,100326.16
2023-01-12T10:02:03.792Z,100319.34
2023-01-12T10:04:34.739Z,100316.01
2023-01-12T10:07:05.689Z,100314.79
2023-01-12T10:09:38.123Z,100312.08
2023-01-12T10:12:18.628Z,100304.35
2023-01-12T10:15:20.511Z,100308.33
2023-01-12T10:17:56.352Z,100304.36
2023-01-12T10:20:32.195Z,100303.77
2023-01-12T10:23:14.792Z,100305.70
2023-01-12T10:25:48.589Z,100303.20
2023-01-12T10:28:24.274Z,100306.11
2023-01-12T10:30:56.645Z,100307.53
2023-01-12T10:33:29.635Z,100302.66
2023-01-12T10:36:03.800Z,100297.87
2023-01-12T10:38:38.393Z,100294.35
2023-01-12T10:41:12.962Z,100289.62
2023-01-12T10:43:45.218Z,100285.89
2023-01-12T10:46:18.853Z,100286.83
2023-01-12T10:48:51.496Z,100284.83
2023-01-12T10:51:29.802Z,100283.66
2023-01-12T10:54:04.097Z,100276.27
2023-01-12T10:56:39.386Z,100271.92
2023-01-12T10:59:22.196Z,100268.52
2023-01-12T11:02:12.137Z,100264.04
2023-01-12T11:04:44.923Z,100261.85
2023-01-12T11:07:19.036Z,100258.20
2023-01-12T11:09:49.993Z,100258.67
2023-01-12T11:12:24.945Z,100254.77
2023-01-12T11:15:04.529Z,100258.80
2023-01-12T11:17:57.504Z,100260.37
2023-01-12T11:20:34.964Z,100257.02
2023-01-12T11:23:10.503Z,100250.18
2023-01-12T11:25:46.166Z,100251.55
2023-01-12T11:28:23.637Z,100256.61
2023-01-12T11:30:59.750Z,100252.32
2023-01-12T11:33:36.339Z,100247.44
2023-01-12T11:36:10.168Z,100246.27
2023-01-12T11:38:44.865Z,100245.67
2023-01-12T11:41:25.594Z,100242.42
2023-01-12T11:44:04.450Z,100243.88
2023-01-12T11:46:42.642Z,100233.33
2023-01-12T11:49:19.570Z,100236.05
2023-01-12T11:51:56.078Z,100234.55
2023-01-12T11:54:28.486Z,100232.73
2023-01-12T11:57:20.414Z,100230.73
2023-01-12T12:00:04.100Z,100234.70
2023-01-12T12:02:50.611Z,100234.70
2023-01-12T12:05:37.510Z,100238.42
2023-01-12T12:08:20.882Z,100238.03
2023-01-12T12:10:56.653Z,100229.98
2023-01-12T12:13:34.602Z,100226.17
2023-01-12T12:16:22.332Z,100224.09
2023-01-12T12:19:20.133Z,100224.84
2023-01-12T12:21:58.425Z,100221.82
2023-01-12T12:24:47.072Z,100219.48
2023-01-12T12:27:26.040Z,100221.27
2023-01-12T12:30:18.141Z,100214.50
2023-01-12T12:32:56.666Z,100215.27
2023-01-12T12:35:41.545Z,100218.39
2023-01-12T12:38:28.333Z,100220.48
2023-01-12T12:41:33.862Z,100221.96
2023-01-12T12:44:34.865Z,100217.98
2023-01-12T12:47:25.269Z,100212.92
2023-01-12T12:49:58.922Z,100215.00
2023-01-12T12:52:32.309Z,100212.46
2023-01-12T12:55:04.521Z,100209.77
2023-01-12T12:58:11.942Z,100212.01
2023-01-12T13:05:47.589Z,100202.16
2023-01-12T13:08:28.648Z,100201.66
2023-01-12T13:11:09.575Z,100196.23
2023-01-12T13:13:58.062Z,100194.54
2023-01-12T13:16:50.742Z,100192.84
2023-01-12T13:19:38.840Z,100185.55
2023-01-12T13:22:29.881Z,100181.67
2023-01-12T13:25:02.060Z,100180.85
2023-01-12T13:27:55.837Z,100175.41
2023-01-12T13:30:49.981Z,100171.32
2023-01-12T13:33:26.681Z,100170.16
2023-01-12T13:36:11.154Z,100171.19
2023-01-12T13:39:07.995Z,100169.35
2023-01-12T13:42:01.476Z,100172.09
2023-01-12T13:44:38.727Z,100172.61
2023-01-12T13:47:17.462Z,100177.91
2023-01-12T13:49:52.086Z,100178.96
2023-01-12T13:52:31.141Z,100178.48
2023-01-12T13:55:02.158Z,100179.84
2023-01-12T13:57:33.499Z,100173.89
2023-01-12T14:00:09.280Z,100170.85
2023-01-12T14:02:43.714Z,100164.54
2023-01-12T14:05:29.258Z,100157.73
2023-01-12T14:08:09.335Z,100152.45
2023-01-12T14:10:45.877Z,100147.19
2023-01-12T14:13:45.531Z,100143.79
2023-01-12T14:16:37.711Z,100144.16
2023-01-12T14:19:27.695Z,100144.17
2023-01-12T14:22:04.618Z,100144.70
2023-01-12T14:24:35.332Z,100142.30
2023-01-12T14:27:22.335Z,100137.05
2023-01-12T14:29:53.229Z,100135.04
2023-01-12T14:32:25.569Z,100131.46
2023-01-12T14:34:56.417Z,100131.45
2023-01-12T14:37:33.597Z,100131.81
2023-01-12T14:40:05.059Z,100129.77
2023-01-12T14:42:53.894Z,100129.27
2023-01-12T14:45:45.344Z,100120.95
2023-01-12T14:48:27.594Z,100115.69
2023-01-12T14:51:23.689Z,100115.37
2023-01-12T14:54:00.733Z,100119.80
2023-01-12T14:56:38.816Z,100114.38
2023-01-12T14:59:17.848Z,100117.45
2023-01-12T15:01:50.448Z,100116.10
2023-01-12T15:04:25.532Z,100116.78
2023-01-12T15:07:06.587Z,100114.92
2023-01-12T15:09:53.728Z,100119.36
2023-01-12T15:12:47.479Z,100119.70
2023-01-12T15:15:22.319Z,100118.00
2023-01-12T15:18:12.165Z,100120.23
2023-01-12T15:21:05.069Z,100119.73
2023-01-12T15:23:55.590Z,100120.91
2023-01-12T15:26:26.337Z,100118.38
2023-01-12T15:28:57.111Z,100117.18
2023-01-12T15:31:33.894Z,100118.04
2023-01-12T15:34:05.773Z,100121.25
2023-01-12T15:36:36.580Z,100122.98
2023-01-12T15:39:07.543Z,100124.33
2023-01-12T15:41:56.175Z,100124.84
2023-01-12T15:44:27.019Z,100130.11
2023-01-12T15:46:57.670Z,100130.61
2023-01-12T15:49:28.381Z,100138.09
2023-01-12T15:52:00.476Z,100132.83
2023-01-12T15:54:31.415Z,100134.02
2023-01-12T15:57:02.260Z,100129.08
2023-01-12T15:59:32.990Z,100132.82
2023-01-12T16:02:20.351Z,100141.98
2023-01-12T16:04:52.609Z,100137.73
2023-01-12T16:07:23.716Z,100137.40
2023-01-12T16:09:55.783Z,100129.73
2023-01-12T16:12:26.746Z,100131.77
2023-01-12T16:14:58.721Z,100130.23
2023-01-12T16:17:29.770Z,100132.45
2023-01-12T16:20:00.539Z,100130.73
2023-01-12T16:22:33.576Z,100125.48
2023-01-12T16:25:04.895Z,100126.48
2023-01-12T16:27:36.186Z,100122.74
2023-01-12T16:30:09.644Z,100120.52
2023-01-12T16:32:45.875Z,100117.95
2023-01-12T16:35:17.563Z,100120.51
2023-01-12T16:37:53.201Z,100116.76
2023-01-12T16:40:23.873Z,100117.95
2023-01-12T16:42:54.692Z,100117.77
2023-01-12T16:45:25.366Z,100114.02
2023-01-12T16:47:58.455Z,100120.64
2023-01-12T16:50:29.317Z,100121.99
2023-01-12T16:52:59.994Z,100119.44
2023-01-12T16:55:30.644Z,100120.29
2023-01-12T16:58:01.702Z,100117.91
2023-01-12T17:00:32.724Z,100122.17
2023-01-12T17:03:04.029Z,100127.94
2023-01-12T17:05:39.088Z,100118.93
2023-01-12T17:08:08.418Z,100114.84
2023-01-12T17:10:39.198Z,100111.44
2023-01-12T17:13:10.153Z,100107.19
2023-01-12T17:15:43.834Z,100102.75
2023-01-12T17:18:14.535Z,100100.54
2023-01-12T17:20:45.610Z,100099.16
2023-01-12T17:23:16.897Z,100093.54
2023-01-12T17:25:47.665Z,100096.92
2023-01-12T17:28:18.589Z,100095.55
2023-01-12T17:30:49.524Z,100092.82
2023-01-12T17:33:21.012Z,100093.46
2023-01-12T17:35:53.952Z,100092.08
2023-01-12T17:38:24.794Z,100088.17
2023-01-12T17:40:56.866Z,100086.45
2023-01-12T17:43:28.992Z,100080.31
2023-01-12T17:46:01.687Z,100080.48
2023-01-12T17:48:33.240Z,100080.61
2023-01-12T17:51:11.799Z,100074.99
2023-01-12T17:53:43.413Z,100075.50
2023-01-12T17:56:14.287Z,100073.45
2023-01-12T17:58:45.292Z,100074.98
2023-01-12T18:01:17.507Z,100073.27
2023-01-12T18:03:48.644Z,100070.89
2023-01-12T18:06:26.480Z,100072.91
2023-01-12T18:09:00.290Z,100071.22
2023-01-12T18:11:31.956Z,100072.92
2023-01-12T18:14:03.895Z,100071.39
2023-01-12T18:16:35.518Z,100066.63
2023-01-12T18:19:08.952Z,100066.45
2023-01-12T18:21:39.964Z,100060.84
2023-01-12T18:24:11.443Z,100058.80
2023-01-12T18:26:42.726Z,100056.61
2023-01-12T18:29:13.837Z,100054.58
2023-01-12T18:31:47.348Z,100050.17
2023-01-12T18:34:19.644Z,100047.96
2023-01-12T18:36:50.721Z,100045.59
2023-01-12T18:39:22.886Z,100042.71
2023-01-12T18:42:11.756Z,100043.23
2023-01-12T18:44:42.595Z,100045.27
2023-01-12T18:47:34.546Z,100043.93
2023-01-12T18:50:19.631Z,100035.95
2023-01-12T18:53:08.132Z,100026.63
2023-01-12T18:55:41.551Z,100025.77
2023-01-12T18:58:12.678Z,100022.89
2023-01-12T19:00:45.693Z,100022.73
2023-01-12T19:03:16.991Z,100020.88
2023-01-12T19:05:58.847Z,100016.65
2023-01-12T19:08:48.463Z,100024.33
2023-01-12T19:11:19.351Z,100014.68
2023-01-12T19:14:08.680Z,100021.31
2023-01-12T19:16:58.212Z,100020.82
2023-01-12T19:19:31.768Z,100020.83
2023-01-12T19:22:20.777Z,100015.22
2023-01-12T19:25:09.367Z,100018.11
2023-01-12T19:27:58.266Z,100015.92
2023-01-12T19:30:29.987Z,100012.88
2023-01-12T19:33:03.926Z,100016.10
2023-01-12T19:35:34.983Z,100015.44
2023-01-12T19:38:06.263Z,100014.77
2023-01-12T19:40:45.919Z,100015.11
2023-01-12T19:43:20.718Z,100013.58
2023-01-12T19:45:53.867Z,100008.99
2023-01-12T19:48:26.354Z,100012.06
2023-01-12T19:50:57.690Z,100005.45
2023-01-12T19:53:28.717Z,100002.73
2023-01-12T19:56:00.193Z,100009.36
2023-01-12T19:58:31.702Z,100011.05
2023-01-12T20:01:04.238Z,100014.96
2023-01-12T20:03:36.031Z,100017.85
2023-01-12T20:06:10.129Z,100014.63
2023-01-12T20:08:42.134Z,100018.88
2023-01-12T20:11:13.170Z,100016.33
2023-01-12T20:13:44.111Z,100010.91
2023-01-12T20:16:15.307Z,100014.80
2023-01-12T20:18:46.175Z,100017.19
2023-01-12T20:21:16.946Z,100016.50
2023-01-12T20:23:47.784Z,100013.62
2023-01-12T20:26:18.680Z,100015.84
2023-01-12T20:28:49.552Z,100015.67
2023-01-12T20:31:21.346Z,100009.39
2023-01-12T20:33:52.471Z,100012.45
2023-01-12T20:36:23.457Z,100012.77
2023-01-12T20:38:55.124Z,100009.73
2023-01-12T20:41:26.286Z,100009.39
2023-01-12T20:43:57.526Z,100008.02
2023-01-12T20:46:29.161Z,100004.46
2023-01-12T20:49:02.411Z,100002.60
2023-01-12T20:51:33.713Z,100005.83
2023-01-12T20:54:06.869Z,100000.56
2023-01-12T20:56:38.372Z,99999.38
2023-01-12T20:59:09.749Z,99999.20
2023-01-12T21:01:40.584Z,99999.36
2023-01-12T21:04:11.611Z,99994.45
2023-01-12T21:06:44.575Z,99993.27
2023-01-12T21:09:15.493Z,99995.47
2023-01-12T21:11:47.498Z,99994.96
2023-01-12T21:14:19.567Z,99998.88
2023-01-12T21:16:50.544Z,100001.42
2023-01-12T21:19:23.442Z,99998.54
2023-01-12T21:21:55.150Z,99991.40
2023-01-12T21:24:27.770Z,99986.64
2023-01-12T21:26:58.827Z,99984.27
2023-01-12T21:29:29.853Z,99980.70
2023-01-12T21:32:01.769Z,99976.47
2023-01-12T21:34:32.799Z,99980.02
2023-01-12T21:37:03.815Z,99977.83
2023-01-12T21:39:34.717Z,99979.18
2023-01-12T21:42:24.640Z,99975.94
2023-01-12T21:44:56.593Z,99974.58
2023-01-12T21:47:27.642Z,99974.92
2023-01-12T21:49:58.695Z,99976.63
2023-01-12T21:52:33.329Z,99975.77
2023-01-12T21:55:04.488Z,99977.47
2023-01-12T21:57:39.022Z,99980.52
2023-01-12T22:00:12.895Z,99977.29
2023-01-12T22:02:44.269Z,99977.46
2023-01-12T22:05:16.660Z,99971.00
2023-01-12T22:07:49.031Z,99967.95
2023-01-12T22:10:24.198Z,99967.26
2023-01-12T22:12:57.095Z,99963.52
2023-01-12T22:15:29.889Z,99965.73
2023-01-12T22:18:07.084Z,99955.52
2023-01-12T22:20:38.818Z,99956.02
2023-01-12T22:23:13.078Z,99957.05
2023-01-12T22:25:44.174Z,99952.80
2023-01-12T22:28:14.977Z,99951.61
2023-01-12T22:30:46.102Z,99951.77
2023-01-12T22:33:16.947Z,99955.01
2023-01-12T22:35:48.230Z,99951.79
2023-01-12T22:38:18.904Z,99950.94
2023-01-12T22:40:50.146Z,99943.11
2023-01-12T22:43:29.824Z,99937.50
2023-01-12T22:46:01.133Z,99936.98
2023-01-12T22:48:31.869Z,99931.39
2023-01-12T22:51:04.137Z,99926.96
2023-01-12T22:53:35.217Z,99928.66
2023-01-12T22:56:07.739Z,99921.02
2023-01-12T22:58:38.459Z,99919.66
2023-01-12T23:01:10.828Z,99920.34
2023-01-12T23:03:41.956Z,99920.67
2023-01-12T23:06:16.650Z,99924.25
2023-01-12T23:08:47.845Z,99921.87
2023-01-12T23:11:21.048Z,99924.08
2023-01-12T23:13:52.275Z,99927.13
2023-01-12T23:16:23.039Z,99927.48
2023-01-12T23:18:55.460Z,99925.95
2023-01-12T23:21:27.800Z,99933.94
2023-01-12T23:24:01.819Z,99928.31
2023-01-12T23:26:33.966Z,99930.02
2023-01-12T23:29:04.814Z,99930.20
2023-01-12T23:31:36.169Z,99932.23
2023-01-12T23:34:07.024Z,99933.42
2023-01-12T23:36:37.878Z,99927.48
2023-01-12T23:39:09.999Z,99929.34
2023-01-12T23:41:41.241Z,99927.31
2023-01-12T23:44:12.491Z,99922.89
2023-01-12T23:46:43.312Z,99927.13
2023-01-12T23:49:14.091Z,99930.54
2023-01-12T23:51:44.810Z,99931.22
2023-01-12T23:54:18.642Z,99928.67
2023-01-12T23:56:53.582Z,99929.17
2023-01-12T23:59:24.582Z,99926.78
